地図

経路データ

SID SEASON NUMBER BASIN SUBBASIN NAME ISO_TIME NATURE LAT LON WMO_WIND WMO_PRES WMO_AGENCY TRACK_TYPE DIST2LAND LANDFALL IFLAG USA_AGENCY USA_ATCF_ID USA_LAT USA_LON USA_RECORD USA_STATUS USA_WIND USA_PRES USA_SSHS USA_R34_NE USA_R34_SE USA_R34_SW USA_R34_NW USA_R50_NE USA_R50_SE USA_R50_SW USA_R50_NW USA_R64_NE USA_R64_SE USA_R64_SW USA_R64_NW USA_POCI USA_ROCI USA_RMW USA_EYE TOKYO_LAT TOKYO_LON TOKYO_GRADE TOKYO_WIND TOKYO_PRES TOKYO_R50_DIR TOKYO_R50_LONG TOKYO_R50_SHORT TOKYO_R30_DIR TOKYO_R30_LONG TOKYO_R30_SHORT TOKYO_LAND CMA_LAT CMA_LON CMA_CAT CMA_WIND CMA_PRES HKO_LAT HKO_LON HKO_CAT HKO_WIND HKO_PRES NEWDELHI_LAT NEWDELHI_LON NEWDELHI_GRADE NEWDELHI_WIND NEWDELHI_PRES NEWDELHI_CI NEWDELHI_DP NEWDELHI_POCI REUNION_LAT REUNION_LON REUNION_TYPE REUNION_WIND REUNION_PRES REUNION_TNUM REUNION_CI REUNION_RMW REUNION_R34_NE REUNION_R34_SE REUNION_R34_SW REUNION_R34_NW REUNION_R50_NE REUNION_R50_SE REUNION_R50_SW REUNION_R50_NW REUNION_R64_NE REUNION_R64_SE REUNION_R64_SW REUNION_R64_NW BOM_LAT BOM_LON BOM_TYPE BOM_WIND BOM_PRES BOM_TNUM BOM_CI BOM_RMW BOM_R34_NE BOM_R34_SE BOM_R34_SW BOM_R34_NW BOM_R50_NE BOM_R50_SE BOM_R50_SW BOM_R50_NW BOM_R64_NE BOM_R64_SE BOM_R64_SW BOM_R64_NW BOM_ROCI BOM_POCI BOM_EYE BOM_POS_METHOD BOM_PRES_METHOD NADI_LAT NADI_LON NADI_CAT NADI_WIND NADI_PRES WELLINGTON_LAT WELLINGTON_LON WELLINGTON_WIND WELLINGTON_PRES DS824_LAT DS824_LON DS824_STAGE DS824_WIND DS824_PRES TD9636_LAT TD9636_LON TD9636_STAGE TD9636_WIND TD9636_PRES TD9635_LAT TD9635_LON TD9635_WIND TD9635_PRES TD9635_ROCI NEUMANN_LAT NEUMANN_LON NEUMANN_CLASS NEUMANN_WIND NEUMANN_PRES MLC_LAT MLC_LON MLC_CLASS MLC_WIND MLC_PRES USA_GUST BOM_GUST BOM_GUST_PER REUNION_GUST REUNION_GUST_PER USA_SEAHGT USA_SEARAD_NE USA_SEARAD_SE USA_SEARAD_SW USA_SEARAD_NW STORM_SPEED STORM_DIR
1981186N13258 1981 47 EP MM CALVIN 1981-07-04 18:00:00 TS 13.4000 -102.400 30 hurdat_epa main 458 458 O_________O___ hurdat_epa EP031981 13.4000 -102.400 TD 30 -1 13.4000 -102.400 1 30 8 278
1981186N13258 1981 47 EP MM CALVIN 1981-07-04 21:00:00 TS 13.4536 -102.788 main 462 462 P_________P___ EP031981 13.4551 -102.785 TD 30 -1 13.4492 -102.797 1 30 8 277
1981186N13258 1981 47 EP MM CALVIN 1981-07-05 00:00:00 TS 13.5000 -103.200 30 hurdat_epa main 481 481 O_________O___ hurdat_epa EP031981 13.5000 -103.200 TD 30 -1 13.5000 -103.200 1 30 8 276
1981186N13258 1981 47 EP MM CALVIN 1981-07-05 03:00:00 TS 13.5404 -103.647 main 502 499 P_________P___ EP031981 13.5350 -103.658 TD 30 -1 13.5565 -103.614 1 32 9 277
1981186N13258 1981 47 EP MM CALVIN 1981-07-05 06:00:00 TS 13.6080 -104.082 30 hurdat_epa main 517 510 O_________P___ hurdat_epa EP031981 13.6000 -104.100 TD 30 -1 13.6319 -104.028 1 35 8 284
1981186N13258 1981 47 EP MM CALVIN 1981-07-05 09:00:00 TS 13.7308 -104.444 main 517 507 P_________P___ EP031981 13.7273 -104.450 TD 35 0 13.7412 -104.428 1 37 8 293
1981186N13258 1981 47 EP MM CALVIN 1981-07-05 12:00:00 TS 13.9000 -104.800 40 hurdat_epa main 510 503 O_________O___ hurdat_epa EP031981 13.9000 -104.800 TS 40 0 13.9000 -104.800 2 40 9 294
1981186N13258 1981 47 EP MM CALVIN 1981-07-05 15:00:00 TS 14.0767 -105.249 main 503 500 P_________P___ EP031981 14.0702 -105.280 TS 42 0 14.0962 -105.157 2 40 9 297
1981186N13258 1981 47 EP MM CALVIN 1981-07-05 18:00:00 TS 14.3112 -105.646 45 hurdat_epa main 500 481 O_________P___ hurdat_epa EP031981 14.3000 -105.700 TS 45 0 14.3449 -105.482 2 40 8 312
1981186N13258 1981 47 EP MM CALVIN 1981-07-05 21:00:00 TS 14.6208 -105.863 main 486 455 P_________P___ EP031981 14.6123 -105.895 TS 42 0 14.6462 -105.766 2 40 8 334
1981186N13258 1981 47 EP MM CALVIN 1981-07-06 00:00:00 TS 15.0000 -106.000 40 hurdat_epa main 455 426 O_________O___ hurdat_epa EP031981 15.0000 -106.000 TS 40 0 15.0000 -106.000 2 40 9 340
1981186N13258 1981 47 EP MM CALVIN 1981-07-06 03:00:00 TS 15.4292 -106.160 main 433 400 P_________P___ EP031981 15.4350 -106.157 TS 37 0 15.4116 -106.168 2 38 9 342
1981186N13258 1981 47 EP MM CALVIN 1981-07-06 06:00:00 TS 15.8924 -106.297 35 hurdat_epa main 400 366 O_________P___ hurdat_epa EP031981 15.9000 -106.300 TS 35 0 15.8697 -106.288 2 37 10 346
1981186N13258 1981 47 EP MM CALVIN 1981-07-06 09:00:00 TS 16.3538 -106.392 main 356 323 P_________P___ EP031981 16.3575 -106.393 TS 35 0 16.3429 -106.390 2 36 9 348
1981186N13258 1981 47 EP MM CALVIN 1981-07-06 12:00:00 TS 16.8000 -106.500 35 hurdat_epa main 323 300 O_________O___ hurdat_epa EP031981 16.8000 -106.500 TS 35 0 16.8000 -106.500 2 35 9 342
1981186N13258 1981 47 EP MM CALVIN 1981-07-06 15:00:00 TS 17.2145 -106.687 main 300 284 P_________P___ EP031981 17.2150 -106.692 TS 35 0 17.2128 -106.669 2 35 9 335
1981186N13258 1981 47 EP MM CALVIN 1981-07-06 18:00:00 TS 17.6006 -106.887 35 hurdat_epa main 284 269 O_________P___ hurdat_epa EP031981 17.6000 -106.900 TS 35 0 17.6025 -106.850 2 35 8 335
1981186N13258 1981 47 EP MM CALVIN 1981-07-06 21:00:00 TS 17.9652 -107.051 main 268 252 P_________P___ EP031981 17.9650 -107.058 TS 35 0 17.9660 -107.031 2 35 8 337
1981186N13258 1981 47 EP MM CALVIN 1981-07-07 00:00:00 TS 18.3000 -107.200 35 hurdat_epa main 253 243 O_________O___ hurdat_epa EP031981 18.3000 -107.200 TS 35 0 18.3000 -107.200 2 35 7 336
1981186N13258 1981 47 EP MM CALVIN 1981-07-07 03:00:00 TS 18.6142 -107.351 main 252 240 P_________P___ EP031981 18.6150 -107.358 TS 35 0 18.6117 -107.332 2 35 7 336
1981186N13258 1981 47 EP MM CALVIN 1981-07-07 06:00:00 TS 18.8987 -107.488 35 hurdat_epa main 243 237 O_________P___ hurdat_epa EP031981 18.9000 -107.500 TS 35 0 18.8948 -107.451 2 35 6 338
1981186N13258 1981 47 EP MM CALVIN 1981-07-07 09:00:00 TS 19.1626 -107.592 main 237 233 P_________P___ EP031981 19.1650 -107.600 TS 35 0 19.1555 -107.569 2 35 5 338
1981186N13258 1981 47 EP MM CALVIN 1981-07-07 12:00:00 TS 19.4000 -107.700 35 hurdat_epa main 237 232 O_________O___ hurdat_epa EP031981 19.4000 -107.700 TS 35 0 19.4000 -107.700 2 35 5 332
1981186N13258 1981 47 EP MM CALVIN 1981-07-07 15:00:00 TS 19.6088 -107.842 main 236 236 P_________P___ EP031981 19.6000 -107.835 TS 37 0 19.6353 -107.861 2 36 5 325
1981186N13258 1981 47 EP MM CALVIN 1981-07-07 18:00:00 TS 19.8144 -108.009 40 hurdat_epa main 249 246 O_________P___ hurdat_epa EP031981 19.8000 -108.000 TS 40 0 19.8575 -108.035 2 37 6 322
1981186N13258 1981 47 EP MM CALVIN 1981-07-07 21:00:00 TS 20.0509 -108.204 main 262 262 P_________P___ EP031981 20.0425 -108.200 TS 40 0 20.0759 -108.217 2 38 6 323
1981186N13258 1981 47 EP MM CALVIN 1981-07-08 00:00:00 TS 20.3000 -108.400 40 hurdat_epa main 281 281 O_________O___ hurdat_epa EP031981 20.3000 -108.400 TS 40 0 20.3000 -108.400 2 40 6 327
1981186N13258 1981 47 EP MM CALVIN 1981-07-08 03:00:00 TS 20.5552 -108.551 main 285 260 P_________P___ EP031981 20.5499 -108.550 TS 40 0 20.5710 -108.555 2 38 6 331
1981186N13258 1981 47 EP MM CALVIN 1981-07-08 06:00:00 TS 20.8112 -108.703 40 hurdat_epa main 260 221 O_________P___ hurdat_epa EP031981 20.8000 -108.700 TS 40 0 20.8446 -108.713 2 37 6 328
1981186N13258 1981 47 EP MM CALVIN 1981-07-08 09:00:00 TS 21.0727 -108.892 main 221 192 P_________P___ EP031981 21.0650 -108.892 TS 37 0 21.0960 -108.889 2 36 6 323
1981186N13258 1981 47 EP MM CALVIN 1981-07-08 12:00:00 TS 21.3000 -109.100 35 hurdat_epa main 192 164 O_________O___ hurdat_epa EP031981 21.3000 -109.100 TS 35 0 21.3000 -109.100 2 35 6 317
1981186N13258 1981 47 EP MM CALVIN 1981-07-08 15:00:00 TS 21.4752 -109.292 main 164 148 P_________P___ EP031981 21.4873 -109.270 TS 32 -1 21.4389 -109.356 2 32 5 305
1981186N13258 1981 47 EP MM CALVIN 1981-07-08 18:00:00 TS 21.5808 -109.538 30 hurdat_epa main 148 145 O_________P___ hurdat_epa EP031981 21.6000 -109.500 TD 30 -1 21.5232 -109.650 2 30 6 284
1981186N13258 1981 47 EP MM CALVIN 1981-07-08 21:00:00 TS 21.6118 -109.887 main 145 145 P_________P___ EP031981 21.6254 -109.860 TD 27 -1 21.5710 -109.969 2 27 7 272
1981186N13258 1981 47 EP MM CALVIN 1981-07-09 00:00:00 TS 21.6000 -110.300 25 hurdat_epa main 148 O_________O___ hurdat_epa EP031981 21.6000 -110.300 TD 25 -1 21.6000 -110.300 1 25 8 268

IBTrACS Databaseについて

本データベースは、米国NOAAが公開する1842年以降の世界の熱帯低気圧のベストトラックデータアーカイブInternational Best Track Archive for Climate Stewardship (IBTrACS)を、ウェブで閲覧しやすい形式に変換したものです。

最終更新日:2021-10-08